sensor_id;sensor_type;location;lat;lon;timestamp;P1;durP1;ratioP1;P2;durP2;ratioP2
27802;SDS011;15182;48.174;11.562;2023-05-01T00:01:16;5.03;;;3.40;;
27802;SDS011;15182;48.174;11.562;2023-05-01T00:03:44;3.63;;;3.53;;
27802;SDS011;15182;48.174;11.562;2023-05-01T00:06:11;3.80;;;3.67;;
27802;SDS011;15182;48.174;11.562;2023-05-01T00:08:39;3.63;;;3.53;;
27802;SDS011;15182;48.174;11.562;2023-05-01T00:11:08;2.97;;;2.97;;
27802;SDS011;15182;48.174;11.562;2023-05-01T00:13:37;3.60;;;3.50;;
27802;SDS011;15182;48.174;11.562;2023-05-01T00:16:06;3.50;;;3.13;;
27802;SDS011;15182;48.174;11.562;2023-05-01T00:18:34;3.40;;;3.30;;
27802;SDS011;15182;48.174;11.562;2023-05-01T00:21:02;3.50;;;3.40;;
27802;SDS011;15182;48.174;11.562;2023-05-01T00:23:31;4.00;;;3.67;;
27802;SDS011;15182;48.174;11.562;2023-05-01T00:25:58;3.67;;;3.57;;
27802;SDS011;15182;48.174;11.562;2023-05-01T00:28:27;3.73;;;3.63;;
27802;SDS011;15182;48.174;11.562;2023-05-01T00:30:55;3.53;;;3.43;;
27802;SDS011;15182;48.174;11.562;2023-05-01T00:33:23;3.47;;;3.37;;
27802;SDS011;15182;48.174;11.562;2023-05-01T00:35:51;4.00;;;3.90;;
27802;SDS011;15182;48.174;11.562;2023-05-01T00:38:20;3.73;;;3.63;;
27802;SDS011;15182;48.174;11.562;2023-05-01T00:40:48;3.67;;;3.57;;
27802;SDS011;15182;48.174;11.562;2023-05-01T00:43:16;3.67;;;3.57;;
27802;SDS011;15182;48.174;11.562;2023-05-01T00:45:45;3.90;;;3.70;;
27802;SDS011;15182;48.174;11.562;2023-05-01T00:48:13;3.50;;;3.47;;
27802;SDS011;15182;48.174;11.562;2023-05-01T00:50:41;3.40;;;3.30;;
27802;SDS011;15182;48.174;11.562;2023-05-01T00:53:10;3.87;;;3.67;;
27802;SDS011;15182;48.174;11.562;2023-05-01T00:55:38;3.50;;;3.40;;
27802;SDS011;15182;48.174;11.562;2023-05-01T00:58:09;3.80;;;3.70;;
27802;SDS011;15182;48.174;11.562;2023-05-01T01:00:37;3.63;;;3.53;;
27802;SDS011;15182;48.174;11.562;2023-05-01T01:03:06;3.33;;;3.23;;
27802;SDS011;15182;48.174;11.562;2023-05-01T01:05:37;3.67;;;3.57;;
27802;SDS011;15182;48.174;11.562;2023-05-01T01:08:10;3.30;;;3.20;;
27802;SDS011;15182;48.174;11.562;2023-05-01T01:10:49;4.20;;;4.00;;
27802;SDS011;15182;48.174;11.562;2023-05-01T01:13:24;3.73;;;3.50;;
27802;SDS011;15182;48.174;11.562;2023-05-01T01:15:58;3.50;;;3.40;;
27802;SDS011;15182;48.174;11.562;2023-05-01T01:18:39;3.33;;;3.23;;
27802;SDS011;15182;48.174;11.562;2023-05-01T01:21:16;3.43;;;3.33;;
27802;SDS011;15182;48.174;11.562;2023-05-01T01:23:57;3.43;;;3.33;;
27802;SDS011;15182;48.174;11.562;2023-05-01T01:30:10;3.57;;;3.47;;
27802;SDS011;15182;48.174;11.562;2023-05-01T01:33:12;3.70;;;3.47;;
27802;SDS011;15182;48.174;11.562;2023-05-01T01:36:00;3.93;;;3.60;;
27802;SDS011;15182;48.174;11.562;2023-05-01T01:38:35;3.37;;;3.27;;
27802;SDS011;15182;48.174;11.562;2023-05-01T01:41:11;3.60;;;3.50;;
27802;SDS011;15182;48.174;11.562;2023-05-01T01:43:45;4.13;;;3.93;;
27802;SDS011;15182;48.174;11.562;2023-05-01T01:46:26;4.53;;;4.23;;
27802;SDS011;15182;48.174;11.562;2023-05-01T01:48:55;4.27;;;4.17;;
27802;SDS011;15182;48.174;11.562;2023-05-01T01:51:25;7.40;;;3.73;;
27802;SDS011;15182;48.174;11.562;2023-05-01T01:53:54;3.60;;;3.60;;
27802;SDS011;15182;48.174;11.562;2023-05-01T01:56:24;3.77;;;3.67;;
27802;SDS011;15182;48.174;11.562;2023-05-01T01:58:53;3.70;;;3.60;;
27802;SDS011;15182;48.174;11.562;2023-05-01T02:01:23;4.23;;;4.03;;
27802;SDS011;15182;48.174;11.562;2023-05-01T02:03:52;3.67;;;3.57;;
27802;SDS011;15182;48.174;11.562;2023-05-01T02:06:22;3.83;;;3.73;;
27802;SDS011;15182;48.174;11.562;2023-05-01T02:08:51;3.83;;;3.73;;
27802;SDS011;15182;48.174;11.562;2023-05-01T02:11:20;3.80;;;3.70;;
27802;SDS011;15182;48.174;11.562;2023-05-01T02:13:48;3.80;;;3.70;;
27802;SDS011;15182;48.174;11.562;2023-05-01T02:16:17;4.10;;;4.00;;
27802;SDS011;15182;48.174;11.562;2023-05-01T02:18:50;4.60;;;4.00;;
27802;SDS011;15182;48.174;11.562;2023-05-01T02:21:21;3.87;;;3.77;;
27802;SDS011;15182;48.174;11.562;2023-05-01T02:23:49;5.10;;;4.33;;
27802;SDS011;15182;48.174;11.562;2023-05-01T02:26:17;3.90;;;3.80;;
27802;SDS011;15182;48.174;11.562;2023-05-01T02:28:50;3.97;;;3.87;;
27802;SDS011;15182;48.174;11.562;2023-05-01T02:31:18;4.17;;;4.07;;
27802;SDS011;15182;48.174;11.562;2023-05-01T02:33:47;4.13;;;4.03;;
27802;SDS011;15182;48.174;11.562;2023-05-01T02:36:15;4.03;;;3.93;;
27802;SDS011;15182;48.174;11.562;2023-05-01T02:38:45;3.83;;;3.73;;
27802;SDS011;15182;48.174;11.562;2023-05-01T02:41:15;4.10;;;3.97;;
27802;SDS011;15182;48.174;11.562;2023-05-01T02:43:47;4.23;;;4.10;;
27802;SDS011;15182;48.174;11.562;2023-05-01T02:46:19;4.20;;;4.10;;
27802;SDS011;15182;48.174;11.562;2023-05-01T02:48:51;4.40;;;4.10;;
27802;SDS011;15182;48.174;11.562;2023-05-01T02:51:20;3.77;;;3.67;;
27802;SDS011;15182;48.174;11.562;2023-05-01T02:53:51;4.00;;;3.90;;
27802;SDS011;15182;48.174;11.562;2023-05-01T02:56:21;4.03;;;3.93;;
27802;SDS011;15182;48.174;11.562;2023-05-01T02:58:52;4.40;;;4.10;;
27802;SDS011;15182;48.174;11.562;2023-05-01T03:01:20;3.80;;;3.70;;
27802;SDS011;15182;48.174;11.562;2023-05-01T03:03:48;3.90;;;3.80;;
27802;SDS011;15182;48.174;11.562;2023-05-01T03:06:16;4.23;;;4.13;;
27802;SDS011;15182;48.174;11.562;2023-05-01T03:08:45;4.20;;;4.10;;
27802;SDS011;15182;48.174;11.562;2023-05-01T03:11:14;4.80;;;4.40;;
27802;SDS011;15182;48.174;11.562;2023-05-01T03:13:42;4.13;;;3.97;;
27802;SDS011;15182;48.174;11.562;2023-05-01T03:16:11;4.57;;;4.27;;
27802;SDS011;15182;48.174;11.562;2023-05-01T03:18:38;4.43;;;4.13;;
27802;SDS011;15182;48.174;11.562;2023-05-01T03:21:06;4.23;;;4.03;;
27802;SDS011;15182;48.174;11.562;2023-05-01T03:23:34;4.00;;;3.90;;
27802;SDS011;15182;48.174;11.562;2023-05-01T03:26:03;4.30;;;4.10;;
27802;SDS011;15182;48.174;11.562;2023-05-01T03:28:34;4.73;;;4.43;;
27802;SDS011;15182;48.174;11.562;2023-05-01T03:31:02;4.40;;;4.30;;
27802;SDS011;15182;48.174;11.562;2023-05-01T03:33:31;3.87;;;3.77;;
27802;SDS011;15182;48.174;11.562;2023-05-01T03:35:59;4.27;;;4.17;;
27802;SDS011;15182;48.174;11.562;2023-05-01T03:38:28;4.50;;;4.30;;
27802;SDS011;15182;48.174;11.562;2023-05-01T03:41:08;4.67;;;4.47;;
27802;SDS011;15182;48.174;11.562;2023-05-01T03:43:45;4.30;;;4.20;;
27802;SDS011;15182;48.174;11.562;2023-05-01T03:46:27;4.63;;;4.23;;
27802;SDS011;15182;48.174;11.562;2023-05-01T03:48:55;4.73;;;4.33;;
27802;SDS011;15182;48.174;11.562;2023-05-01T03:51:24;4.90;;;4.70;;
27802;SDS011;15182;48.174;11.562;2023-05-01T03:53:53;4.40;;;4.30;;
27802;SDS011;15182;48.174;11.562;2023-05-01T03:56:24;4.80;;;4.60;;
27802;SDS011;15182;48.174;11.562;2023-05-01T03:58:54;4.87;;;4.67;;
27802;SDS011;15182;48.174;11.562;2023-05-01T04:01:22;4.27;;;4.17;;
27802;SDS011;15182;48.174;11.562;2023-05-01T04:03:51;3.93;;;3.83;;
27802;SDS011;15182;48.174;11.562;2023-05-01T04:06:19;4.07;;;3.97;;
27802;SDS011;15182;48.174;11.562;2023-05-01T04:08:47;4.67;;;4.47;;
27802;SDS011;15182;48.174;11.562;2023-05-01T04:11:15;4.30;;;4.10;;
27802;SDS011;15182;48.174;11.562;2023-05-01T04:13:43;4.37;;;4.03;;
27802;SDS011;15182;48.174;11.562;2023-05-01T04:16:12;5.50;;;5.20;;
27802;SDS011;15182;48.174;11.562;2023-05-01T04:18:40;4.53;;;4.43;;
27802;SDS011;15182;48.174;11.562;2023-05-01T04:21:08;4.83;;;4.53;;
27802;SDS011;15182;48.174;11.562;2023-05-01T04:23:38;4.47;;;4.37;;
27802;SDS011;15182;48.174;11.562;2023-05-01T04:26:06;4.20;;;4.10;;
27802;SDS011;15182;48.174;11.562;2023-05-01T04:28:34;4.50;;;4.30;;
27802;SDS011;15182;48.174;11.562;2023-05-01T04:31:02;4.30;;;4.17;;
27802;SDS011;15182;48.174;11.562;2023-05-01T04:33:32;4.67;;;4.57;;
27802;SDS011;15182;48.174;11.562;2023-05-01T04:36:00;4.60;;;4.50;;
27802;SDS011;15182;48.174;11.562;2023-05-01T04:38:29;4.53;;;4.43;;
27802;SDS011;15182;48.174;11.562;2023-05-01T04:40:58;4.47;;;4.30;;
27802;SDS011;15182;48.174;11.562;2023-05-01T04:43:25;4.33;;;4.23;;
27802;SDS011;15182;48.174;11.562;2023-05-01T04:45:53;4.77;;;4.50;;
27802;SDS011;15182;48.174;11.562;2023-05-01T04:48:21;4.73;;;4.43;;
27802;SDS011;15182;48.174;11.562;2023-05-01T04:50:50;4.40;;;4.30;;
27802;SDS011;15182;48.174;11.562;2023-05-01T04:53:20;4.80;;;4.63;;
27802;SDS011;15182;48.174;11.562;2023-05-01T04:55:48;4.90;;;4.70;;
27802;SDS011;15182;48.174;11.562;2023-05-01T04:58:17;4.83;;;4.63;;
27802;SDS011;15182;48.174;11.562;2023-05-01T05:00:48;4.60;;;4.40;;
27802;SDS011;15182;48.174;11.562;2023-05-01T05:03:20;5.00;;;4.60;;
27802;SDS011;15182;48.174;11.562;2023-05-01T05:05:48;4.37;;;4.27;;
27802;SDS011;15182;48.174;11.562;2023-05-01T05:08:17;4.80;;;4.63;;
27802;SDS011;15182;48.174;11.562;2023-05-01T05:10:48;5.20;;;4.80;;
27802;SDS011;15182;48.174;11.562;2023-05-01T05:13:26;5.10;;;4.90;;
27802;SDS011;15182;48.174;11.562;2023-05-01T05:16:00;5.73;;;5.10;;
27802;SDS011;15182;48.174;11.562;2023-05-01T05:18:28;4.97;;;4.80;;
27802;SDS011;15182;48.174;11.562;2023-05-01T05:20:56;4.73;;;4.53;;
27802;SDS011;15182;48.174;11.562;2023-05-01T05:23:25;4.87;;;4.53;;
27802;SDS011;15182;48.174;11.562;2023-05-01T05:25:54;4.87;;;4.67;;
27802;SDS011;15182;48.174;11.562;2023-05-01T05:28:22;5.03;;;4.73;;
27802;SDS011;15182;48.174;11.562;2023-05-01T05:30:51;5.43;;;5.03;;
27802;SDS011;15182;48.174;11.562;2023-05-01T05:33:19;4.97;;;4.67;;
27802;SDS011;15182;48.174;11.562;2023-05-01T05:35:50;5.23;;;5.03;;
27802;SDS011;15182;48.174;11.562;2023-05-01T05:38:20;5.20;;;4.93;;
27802;SDS011;15182;48.174;11.562;2023-05-01T05:40:53;4.97;;;4.77;;
27802;SDS011;15182;48.174;11.562;2023-05-01T05:43:21;5.63;;;5.33;;
27802;SDS011;15182;48.174;11.562;2023-05-01T05:45:49;5.13;;;4.97;;
27802;SDS011;15182;48.174;11.562;2023-05-01T05:48:17;4.37;;;4.27;;
27802;SDS011;15182;48.174;11.562;2023-05-01T05:50:45;4.50;;;4.40;;
27802;SDS011;15182;48.174;11.562;2023-05-01T05:53:13;4.40;;;4.30;;
27802;SDS011;15182;48.174;11.562;2023-05-01T05:55:42;5.10;;;4.80;;
27802;SDS011;15182;48.174;11.562;2023-05-01T05:58:12;4.83;;;4.63;;
27802;SDS011;15182;48.174;11.562;2023-05-01T06:00:45;5.07;;;4.77;;
27802;SDS011;15182;48.174;11.562;2023-05-01T06:03:14;5.23;;;5.03;;
27802;SDS011;15182;48.174;11.562;2023-05-01T06:05:43;4.70;;;4.50;;
27802;SDS011;15182;48.174;11.562;2023-05-01T06:08:12;4.93;;;4.60;;
27802;SDS011;15182;48.174;11.562;2023-05-01T06:10:41;5.20;;;4.90;;
27802;SDS011;15182;48.174;11.562;2023-05-01T06:13:09;4.90;;;4.70;;
27802;SDS011;15182;48.174;11.562;2023-05-01T06:15:40;4.97;;;4.53;;
27802;SDS011;15182;48.174;11.562;2023-05-01T06:18:08;5.50;;;5.20;;
27802;SDS011;15182;48.174;11.562;2023-05-01T06:20:36;5.07;;;4.77;;
27802;SDS011;15182;48.174;11.562;2023-05-01T06:23:04;4.37;;;4.27;;
27802;SDS011;15182;48.174;11.562;2023-05-01T06:25:51;4.97;;;4.60;;
27802;SDS011;15182;48.174;11.562;2023-05-01T06:28:19;4.67;;;4.47;;
27802;SDS011;15182;48.174;11.562;2023-05-01T06:30:48;5.33;;;5.00;;
27802;SDS011;15182;48.174;11.562;2023-05-01T06:33:18;5.90;;;5.07;;
27802;SDS011;15182;48.174;11.562;2023-05-01T06:35:53;4.40;;;4.20;;
27802;SDS011;15182;48.174;11.562;2023-05-01T06:38:24;5.00;;;4.67;;
27802;SDS011;15182;48.174;11.562;2023-05-01T06:40:52;4.77;;;4.57;;
27802;SDS011;15182;48.174;11.562;2023-05-01T06:43:21;4.60;;;4.40;;
27802;SDS011;15182;48.174;11.562;2023-05-01T06:45:54;4.70;;;4.50;;
27802;SDS011;15182;48.174;11.562;2023-05-01T06:48:21;4.97;;;4.77;;
27802;SDS011;15182;48.174;11.562;2023-05-01T06:50:49;4.50;;;4.33;;
27802;SDS011;15182;48.174;11.562;2023-05-01T06:53:17;4.60;;;4.40;;
27802;SDS011;15182;48.174;11.562;2023-05-01T06:55:45;4.33;;;4.17;;
27802;SDS011;15182;48.174;11.562;2023-05-01T06:58:12;4.47;;;4.37;;
27802;SDS011;15182;48.174;11.562;2023-05-01T07:00:40;4.70;;;4.40;;
27802;SDS011;15182;48.174;11.562;2023-05-01T07:03:09;6.17;;;5.73;;
27802;SDS011;15182;48.174;11.562;2023-05-01T07:05:37;4.93;;;4.53;;
27802;SDS011;15182;48.174;11.562;2023-05-01T07:08:07;4.97;;;4.77;;
27802;SDS011;15182;48.174;11.562;2023-05-01T07:10:35;4.60;;;4.40;;
27802;SDS011;15182;48.174;11.562;2023-05-01T07:13:02;5.03;;;4.83;;
27802;SDS011;15182;48.174;11.562;2023-05-01T07:15:30;5.23;;;4.80;;
27802;SDS011;15182;48.174;11.562;2023-05-01T07:17:59;4.50;;;4.30;;
27802;SDS011;15182;48.174;11.562;2023-05-01T07:20:29;4.67;;;4.40;;
27802;SDS011;15182;48.174;11.562;2023-05-01T07:22:56;5.13;;;4.83;;
27802;SDS011;15182;48.174;11.562;2023-05-01T07:25:24;4.77;;;4.60;;
27802;SDS011;15182;48.174;11.562;2023-05-01T07:27:52;4.80;;;4.67;;
27802;SDS011;15182;48.174;11.562;2023-05-01T07:30:20;5.10;;;4.93;;
27802;SDS011;15182;48.174;11.562;2023-05-01T07:32:47;4.67;;;4.57;;
27802;SDS011;15182;48.174;11.562;2023-05-01T07:35:15;4.70;;;4.53;;
27802;SDS011;15182;48.174;11.562;2023-05-01T07:37:44;4.80;;;4.50;;
27802;SDS011;15182;48.174;11.562;2023-05-01T07:40:12;4.87;;;4.53;;
27802;SDS011;15182;48.174;11.562;2023-05-01T07:42:40;5.07;;;4.97;;
27802;SDS011;15182;48.174;11.562;2023-05-01T07:45:08;4.53;;;4.23;;
27802;SDS011;15182;48.174;11.562;2023-05-01T07:47:37;4.93;;;4.83;;
27802;SDS011;15182;48.174;11.562;2023-05-01T07:50:08;5.43;;;4.93;;
27802;SDS011;15182;48.174;11.562;2023-05-01T07:52:36;4.40;;;4.30;;
27802;SDS011;15182;48.174;11.562;2023-05-01T07:55:06;4.73;;;4.53;;
27802;SDS011;15182;48.174;11.562;2023-05-01T07:57:35;5.00;;;4.70;;
27802;SDS011;15182;48.174;11.562;2023-05-01T08:00:03;5.40;;;5.10;;
27802;SDS011;15182;48.174;11.562;2023-05-01T08:02:39;4.50;;;4.37;;
27802;SDS011;15182;48.174;11.562;2023-05-01T08:05:07;5.10;;;4.80;;
27802;SDS011;15182;48.174;11.562;2023-05-01T08:07:35;4.73;;;4.37;;
27802;SDS011;15182;48.174;11.562;2023-05-01T08:10:03;4.70;;;4.50;;
27802;SDS011;15182;48.174;11.562;2023-05-01T08:12:33;4.70;;;4.23;;
27802;SDS011;15182;48.174;11.562;2023-05-01T08:15:01;5.13;;;4.87;;
27802;SDS011;15182;48.174;11.562;2023-05-01T08:17:29;5.13;;;4.83;;
27802;SDS011;15182;48.174;11.562;2023-05-01T08:19:57;5.10;;;4.80;;
27802;SDS011;15182;48.174;11.562;2023-05-01T08:22:26;4.77;;;4.37;;
27802;SDS011;15182;48.174;11.562;2023-05-01T08:24:54;4.80;;;4.50;;
27802;SDS011;15182;48.174;11.562;2023-05-01T08:27:23;4.83;;;4.60;;
27802;SDS011;15182;48.174;11.562;2023-05-01T08:29:51;4.63;;;4.53;;
27802;SDS011;15182;48.174;11.562;2023-05-01T08:32:19;5.10;;;4.90;;
27802;SDS011;15182;48.174;11.562;2023-05-01T08:34:47;5.33;;;4.97;;
27802;SDS011;15182;48.174;11.562;2023-05-01T08:37:14;4.83;;;4.53;;
27802;SDS011;15182;48.174;11.562;2023-05-01T08:39:43;5.27;;;4.60;;
27802;SDS011;15182;48.174;11.562;2023-05-01T08:42:11;5.20;;;4.77;;
27802;SDS011;15182;48.174;11.562;2023-05-01T08:44:40;5.20;;;4.83;;
27802;SDS011;15182;48.174;11.562;2023-05-01T08:47:10;7.60;;;4.90;;
27802;SDS011;15182;48.174;11.562;2023-05-01T08:49:41;5.00;;;4.80;;
27802;SDS011;15182;48.174;11.562;2023-05-01T08:52:10;5.37;;;5.07;;
27802;SDS011;15182;48.174;11.562;2023-05-01T08:54:41;4.57;;;4.33;;
27802;SDS011;15182;48.174;11.562;2023-05-01T08:57:10;5.30;;;5.10;;
27802;SDS011;15182;48.174;11.562;2023-05-01T08:59:40;5.07;;;4.87;;
27802;SDS011;15182;48.174;11.562;2023-05-01T09:02:08;5.27;;;4.97;;
27802;SDS011;15182;48.174;11.562;2023-05-01T09:04:36;5.20;;;4.73;;
27802;SDS011;15182;48.174;11.562;2023-05-01T09:07:06;4.73;;;4.53;;
27802;SDS011;15182;48.174;11.562;2023-05-01T09:09:34;5.17;;;4.97;;
27802;SDS011;15182;48.174;11.562;2023-05-01T09:12:06;4.93;;;4.63;;
27802;SDS011;15182;48.174;11.562;2023-05-01T09:14:40;4.70;;;4.50;;
27802;SDS011;15182;48.174;11.562;2023-05-01T09:17:08;5.17;;;4.97;;
27802;SDS011;15182;48.174;11.562;2023-05-01T09:19:36;5.07;;;4.97;;
27802;SDS011;15182;48.174;11.562;2023-05-01T09:22:05;5.20;;;5.00;;
27802;SDS011;15182;48.174;11.562;2023-05-01T09:24:33;5.03;;;4.83;;
27802;SDS011;15182;48.174;11.562;2023-05-01T09:27:01;4.90;;;4.70;;
27802;SDS011;15182;48.174;11.562;2023-05-01T09:29:36;6.10;;;5.70;;
27802;SDS011;15182;48.174;11.562;2023-05-01T09:32:16;5.50;;;5.20;;
27802;SDS011;15182;48.174;11.562;2023-05-01T09:34:46;4.63;;;4.43;;
27802;SDS011;15182;48.174;11.562;2023-05-01T09:37:23;5.03;;;4.83;;
27802;SDS011;15182;48.174;11.562;2023-05-01T09:40:06;4.73;;;4.53;;
27802;SDS011;15182;48.174;11.562;2023-05-01T09:42:36;5.00;;;4.80;;
27802;SDS011;15182;48.174;11.562;2023-05-01T09:45:10;5.20;;;4.90;;
27802;SDS011;15182;48.174;11.562;2023-05-01T09:47:41;5.70;;;5.40;;
27802;SDS011;15182;48.174;11.562;2023-05-01T09:50:10;5.20;;;5.00;;
27802;SDS011;15182;48.174;11.562;2023-05-01T09:52:38;6.03;;;5.53;;
27802;SDS011;15182;48.174;11.562;2023-05-01T09:55:17;6.37;;;5.97;;
27802;SDS011;15182;48.174;11.562;2023-05-01T09:57:45;5.57;;;5.37;;
27802;SDS011;15182;48.174;11.562;2023-05-01T10:00:14;6.17;;;5.67;;
27802;SDS011;15182;48.174;11.562;2023-05-01T10:02:47;5.80;;;5.60;;
27802;SDS011;15182;48.174;11.562;2023-05-01T10:05:16;5.83;;;5.50;;
27802;SDS011;15182;48.174;11.562;2023-05-01T10:07:55;5.53;;;5.23;;
27802;SDS011;15182;48.174;11.562;2023-05-01T10:10:24;7.00;;;6.43;;
27802;SDS011;15182;48.174;11.562;2023-05-01T10:12:52;6.47;;;5.90;;
27802;SDS011;15182;48.174;11.562;2023-05-01T10:15:20;6.60;;;6.17;;
27802;SDS011;15182;48.174;11.562;2023-05-01T10:17:49;6.20;;;5.80;;
27802;SDS011;15182;48.174;11.562;2023-05-01T10:20:17;6.00;;;5.60;;
27802;SDS011;15182;48.174;11.562;2023-05-01T10:22:45;6.90;;;6.30;;
27802;SDS011;15182;48.174;11.562;2023-05-01T10:25:13;6.53;;;6.20;;
27802;SDS011;15182;48.174;11.562;2023-05-01T10:27:43;6.47;;;6.07;;
27802;SDS011;15182;48.174;11.562;2023-05-01T10:30:11;7.00;;;6.40;;
27802;SDS011;15182;48.174;11.562;2023-05-01T10:32:40;7.10;;;6.60;;
27802;SDS011;15182;48.174;11.562;2023-05-01T10:35:10;6.93;;;6.37;;
27802;SDS011;15182;48.174;11.562;2023-05-01T10:37:43;7.23;;;6.80;;
27802;SDS011;15182;48.174;11.562;2023-05-01T10:43:19;6.70;;;6.30;;
27802;SDS011;15182;48.174;11.562;2023-05-01T10:45:51;6.03;;;5.77;;
27802;SDS011;15182;48.174;11.562;2023-05-01T10:51:23;6.80;;;6.40;;
27802;SDS011;15182;48.174;11.562;2023-05-01T10:56:58;6.20;;;5.80;;
27802;SDS011;15182;48.174;11.562;2023-05-01T10:59:27;7.50;;;7.03;;
27802;SDS011;15182;48.174;11.562;2023-05-01T11:02:36;6.93;;;6.43;;
27802;SDS011;15182;48.174;11.562;2023-05-01T11:05:04;7.10;;;6.60;;
27802;SDS011;15182;48.174;11.562;2023-05-01T11:07:34;7.00;;;6.60;;
27802;SDS011;15182;48.174;11.562;2023-05-01T11:10:02;7.17;;;6.70;;
27802;SDS011;15182;48.174;11.562;2023-05-01T11:15:29;7.57;;;6.97;;
27802;SDS011;15182;48.174;11.562;2023-05-01T11:17:58;7.37;;;6.83;;
27802;SDS011;15182;48.174;11.562;2023-05-01T11:20:47;7.30;;;6.80;;
27802;SDS011;15182;48.174;11.562;2023-05-01T11:23:20;7.47;;;6.90;;
27802;SDS011;15182;48.174;11.562;2023-05-01T11:25:59;7.77;;;7.10;;
27802;SDS011;15182;48.174;11.562;2023-05-01T11:28:29;6.20;;;5.90;;
27802;SDS011;15182;48.174;11.562;2023-05-01T11:30:57;7.60;;;7.10;;
27802;SDS011;15182;48.174;11.562;2023-05-01T11:33:26;7.93;;;7.40;;
27802;SDS011;15182;48.174;11.562;2023-05-01T11:35:57;7.73;;;7.03;;
27802;SDS011;15182;48.174;11.562;2023-05-01T11:38:27;7.47;;;6.67;;
27802;SDS011;15182;48.174;11.562;2023-05-01T11:41:02;8.03;;;7.43;;
27802;SDS011;15182;48.174;11.562;2023-05-01T11:43:30;8.10;;;7.57;;
27802;SDS011;15182;48.174;11.562;2023-05-01T11:45:58;7.40;;;6.90;;
27802;SDS011;15182;48.174;11.562;2023-05-01T11:48:28;8.33;;;7.73;;
27802;SDS011;15182;48.174;11.562;2023-05-01T11:50:57;7.83;;;7.23;;
27802;SDS011;15182;48.174;11.562;2023-05-01T11:53:25;8.23;;;7.63;;
27802;SDS011;15182;48.174;11.562;2023-05-01T11:55:54;6.87;;;6.47;;
27802;SDS011;15182;48.174;11.562;2023-05-01T11:58:30;7.37;;;6.87;;
27802;SDS011;15182;48.174;11.562;2023-05-01T12:00:59;6.47;;;6.07;;
27802;SDS011;15182;48.174;11.562;2023-05-01T12:03:31;8.17;;;6.60;;
27802;SDS011;15182;48.174;11.562;2023-05-01T12:06:08;7.53;;;7.00;;
27802;SDS011;15182;48.174;11.562;2023-05-01T12:08:40;8.40;;;7.60;;
27802;SDS011;15182;48.174;11.562;2023-05-01T12:11:12;7.77;;;7.17;;
27802;SDS011;15182;48.174;11.562;2023-05-01T12:13:40;7.90;;;7.33;;
27802;SDS011;15182;48.174;11.562;2023-05-01T12:16:08;7.90;;;7.30;;
27802;SDS011;15182;48.174;11.562;2023-05-01T12:18:36;7.80;;;7.20;;
27802;SDS011;15182;48.174;11.562;2023-05-01T12:21:04;7.83;;;7.33;;
27802;SDS011;15182;48.174;11.562;2023-05-01T12:23:40;7.60;;;6.93;;
27802;SDS011;15182;48.174;11.562;2023-05-01T12:26:15;7.87;;;7.40;;
27802;SDS011;15182;48.174;11.562;2023-05-01T12:28:58;7.87;;;7.37;;
27802;SDS011;15182;48.174;11.562;2023-05-01T12:31:27;8.17;;;7.40;;
27802;SDS011;15182;48.174;11.562;2023-05-01T12:33:55;7.43;;;6.93;;
27802;SDS011;15182;48.174;11.562;2023-05-01T12:36:25;7.83;;;7.23;;
27802;SDS011;15182;48.174;11.562;2023-05-01T12:38:55;7.53;;;7.03;;
27802;SDS011;15182;48.174;11.562;2023-05-01T12:41:33;7.97;;;7.27;;
27802;SDS011;15182;48.174;11.562;2023-05-01T12:44:14;7.37;;;6.87;;
27802;SDS011;15182;48.174;11.562;2023-05-01T12:46:52;8.27;;;7.57;;
27802;SDS011;15182;48.174;11.562;2023-05-01T12:49:21;7.97;;;7.33;;
27802;SDS011;15182;48.174;11.562;2023-05-01T12:51:50;7.57;;;7.03;;
27802;SDS011;15182;48.174;11.562;2023-05-01T12:54:20;8.40;;;7.53;;
27802;SDS011;15182;48.174;11.562;2023-05-01T12:56:50;8.17;;;7.47;;
27802;SDS011;15182;48.174;11.562;2023-05-01T12:59:19;9.17;;;7.17;;
27802;SDS011;15182;48.174;11.562;2023-05-01T13:01:55;8.33;;;7.67;;
27802;SDS011;15182;48.174;11.562;2023-05-01T13:04:24;7.50;;;6.90;;
27802;SDS011;15182;48.174;11.562;2023-05-01T13:06:52;8.63;;;7.93;;
27802;SDS011;15182;48.174;11.562;2023-05-01T13:09:21;9.80;;;8.83;;
27802;SDS011;15182;48.174;11.562;2023-05-01T13:11:56;9.27;;;8.37;;
27802;SDS011;15182;48.174;11.562;2023-05-01T13:14:27;10.67;;;9.13;;
27802;SDS011;15182;48.174;11.562;2023-05-01T13:17:01;9.20;;;8.30;;
27802;SDS011;15182;48.174;11.562;2023-05-01T13:19:29;11.37;;;8.73;;
27802;SDS011;15182;48.174;11.562;2023-05-01T13:21:57;9.20;;;8.30;;
27802;SDS011;15182;48.174;11.562;2023-05-01T13:24:33;7.80;;;7.20;;
27802;SDS011;15182;48.174;11.562;2023-05-01T13:27:05;7.70;;;7.10;;
27802;SDS011;15182;48.174;11.562;2023-05-01T13:29:34;7.53;;;7.03;;
27802;SDS011;15182;48.174;11.562;2023-05-01T13:32:02;8.73;;;6.87;;
27802;SDS011;15182;48.174;11.562;2023-05-01T13:34:32;7.77;;;7.27;;
27802;SDS011;15182;48.174;11.562;2023-05-01T13:37:02;7.47;;;6.97;;
27802;SDS011;15182;48.174;11.562;2023-05-01T13:39:30;7.60;;;7.10;;
27802;SDS011;15182;48.174;11.562;2023-05-01T13:41:57;7.07;;;6.33;;
27802;SDS011;15182;48.174;11.562;2023-05-01T13:44:32;6.90;;;6.40;;
27802;SDS011;15182;48.174;11.562;2023-05-01T13:47:09;6.93;;;6.53;;
27802;SDS011;15182;48.174;11.562;2023-05-01T13:49:43;7.33;;;6.93;;
27802;SDS011;15182;48.174;11.562;2023-05-01T13:52:13;6.43;;;6.13;;
27802;SDS011;15182;48.174;11.562;2023-05-01T13:54:44;7.50;;;7.00;;
27802;SDS011;15182;48.174;11.562;2023-05-01T13:57:13;7.17;;;6.50;;
27802;SDS011;15182;48.174;11.562;2023-05-01T13:59:43;7.43;;;6.97;;
27802;SDS011;15182;48.174;11.562;2023-05-01T14:02:17;6.83;;;6.40;;
27802;SDS011;15182;48.174;11.562;2023-05-01T14:04:46;7.10;;;6.60;;
27802;SDS011;15182;48.174;11.562;2023-05-01T14:07:16;7.10;;;6.60;;
27802;SDS011;15182;48.174;11.562;2023-05-01T14:09:45;7.33;;;6.87;;
27802;SDS011;15182;48.174;11.562;2023-05-01T14:12:20;7.17;;;6.70;;
27802;SDS011;15182;48.174;11.562;2023-05-01T14:14:54;7.20;;;6.60;;
27802;SDS011;15182;48.174;11.562;2023-05-01T14:17:24;7.07;;;6.60;;
27802;SDS011;15182;48.174;11.562;2023-05-01T14:19:56;7.20;;;6.80;;
27802;SDS011;15182;48.174;11.562;2023-05-01T14:22:24;7.47;;;6.70;;
27802;SDS011;15182;48.174;11.562;2023-05-01T14:24:54;6.83;;;6.33;;
27802;SDS011;15182;48.174;11.562;2023-05-01T14:27:24;7.23;;;6.83;;
27802;SDS011;15182;48.174;11.562;2023-05-01T14:29:53;7.37;;;6.80;;
27802;SDS011;15182;48.174;11.562;2023-05-01T14:32:22;6.57;;;6.17;;
27802;SDS011;15182;48.174;11.562;2023-05-01T14:34:49;6.70;;;6.27;;
27802;SDS011;15182;48.174;11.562;2023-05-01T14:37:17;7.03;;;6.53;;
27802;SDS011;15182;48.174;11.562;2023-05-01T14:39:45;7.20;;;6.60;;
27802;SDS011;15182;48.174;11.562;2023-05-01T14:42:13;6.97;;;6.57;;
27802;SDS011;15182;48.174;11.562;2023-05-01T14:44:41;7.13;;;6.73;;
27802;SDS011;15182;48.174;11.562;2023-05-01T14:47:10;6.10;;;5.77;;
27802;SDS011;15182;48.174;11.562;2023-05-01T14:49:40;7.47;;;6.97;;
27802;SDS011;15182;48.174;11.562;2023-05-01T14:52:08;7.13;;;6.30;;
27802;SDS011;15182;48.174;11.562;2023-05-01T14:54:42;6.10;;;5.77;;
27802;SDS011;15182;48.174;11.562;2023-05-01T14:57:12;6.40;;;6.03;;
27802;SDS011;15182;48.174;11.562;2023-05-01T14:59:40;7.50;;;6.23;;
27802;SDS011;15182;48.174;11.562;2023-05-01T15:02:08;6.23;;;5.83;;
27802;SDS011;15182;48.174;11.562;2023-05-01T15:04:37;7.53;;;6.87;;
27802;SDS011;15182;48.174;11.562;2023-05-01T15:07:05;5.93;;;5.63;;